sensor_id;sensor_type;location;lat;lon;timestamp;temperature;humidity
3713;DHT22;1872;51.406;6.856;2023-02-03T00:00:32;8.80;99.90
3713;DHT22;1872;51.406;6.856;2023-02-03T00:02:58;8.80;99.90
3713;DHT22;1872;51.406;6.856;2023-02-03T00:05:24;8.80;99.90
3713;DHT22;1872;51.406;6.856;2023-02-03T00:07:50;8.80;99.90
3713;DHT22;1872;51.406;6.856;2023-02-03T00:10:16;8.80;99.90
3713;DHT22;1872;51.406;6.856;2023-02-03T00:12:49;8.80;99.90
3713;DHT22;1872;51.406;6.856;2023-02-03T00:15:17;8.80;99.90
3713;DHT22;1872;51.406;6.856;2023-02-03T00:17:43;8.80;99.90
3713;DHT22;1872;51.406;6.856;2023-02-03T00:20:10;8.80;99.90
3713;DHT22;1872;51.406;6.856;2023-02-03T00:22:35;8.80;99.90
3713;DHT22;1872;51.406;6.856;2023-02-03T00:25:01;8.80;99.90
3713;DHT22;1872;51.406;6.856;2023-02-03T00:27:27;8.80;99.90
3713;DHT22;1872;51.406;6.856;2023-02-03T00:29:53;8.80;99.90
3713;DHT22;1872;51.406;6.856;2023-02-03T00:32:18;8.80;99.90
3713;DHT22;1872;51.406;6.856;2023-02-03T00:34:44;8.80;99.90
3713;DHT22;1872;51.406;6.856;2023-02-03T00:37:12;8.80;99.90
3713;DHT22;1872;51.406;6.856;2023-02-03T00:39:37;8.80;99.90
3713;DHT22;1872;51.406;6.856;2023-02-03T00:42:04;8.70;99.90
3713;DHT22;1872;51.406;6.856;2023-02-03T00:44:30;8.70;99.90
3713;DHT22;1872;51.406;6.856;2023-02-03T00:46:55;8.70;99.90
3713;DHT22;1872;51.406;6.856;2023-02-03T00:49:22;8.80;99.90
3713;DHT22;1872;51.406;6.856;2023-02-03T00:51:48;8.80;99.90
3713;DHT22;1872;51.406;6.856;2023-02-03T00:54:15;8.80;99.90
3713;DHT22;1872;51.406;6.856;2023-02-03T00:56:41;8.80;99.90
3713;DHT22;1872;51.406;6.856;2023-02-03T00:59:06;8.80;99.90
3713;DHT22;1872;51.406;6.856;2023-02-03T01:01:33;8.80;99.90
3713;DHT22;1872;51.406;6.856;2023-02-03T01:03:59;8.80;99.90
3713;DHT22;1872;51.406;6.856;2023-02-03T01:06:25;8.80;99.90
3713;DHT22;1872;51.406;6.856;2023-02-03T01:08:51;8.80;99.90
3713;DHT22;1872;51.406;6.856;2023-02-03T01:11:24;8.80;99.90
3713;DHT22;1872;51.406;6.856;2023-02-03T01:13:53;8.80;99.90
3713;DHT22;1872;51.406;6.856;2023-02-03T01:16:20;8.80;99.90
3713;DHT22;1872;51.406;6.856;2023-02-03T01:18:46;8.80;99.90
3713;DHT22;1872;51.406;6.856;2023-02-03T01:21:21;8.80;99.90
3713;DHT22;1872;51.406;6.856;2023-02-03T01:23:49;8.80;99.90
3713;DHT22;1872;51.406;6.856;2023-02-03T01:26:16;8.90;99.90
3713;DHT22;1872;51.406;6.856;2023-02-03T01:28:42;8.90;99.90
3713;DHT22;1872;51.406;6.856;2023-02-03T01:33:34;8.90;99.90
3713;DHT22;1872;51.406;6.856;2023-02-03T01:36:00;8.90;99.90
3713;DHT22;1872;51.406;6.856;2023-02-03T01:38:26;8.90;99.90
3713;DHT22;1872;51.406;6.856;2023-02-03T01:40:52;8.90;99.90
3713;DHT22;1872;51.406;6.856;2023-02-03T01:43:48;8.90;99.90
3713;DHT22;1872;51.406;6.856;2023-02-03T01:48:55;8.90;99.90
3713;DHT22;1872;51.406;6.856;2023-02-03T01:51:21;8.90;99.90
3713;DHT22;1872;51.406;6.856;2023-02-03T01:53:48;8.90;99.90
3713;DHT22;1872;51.406;6.856;2023-02-03T01:56:15;8.90;99.90
3713;DHT22;1872;51.406;6.856;2023-02-03T01:58:42;8.90;99.90
3713;DHT22;1872;51.406;6.856;2023-02-03T02:01:09;8.90;99.90
3713;DHT22;1872;51.406;6.856;2023-02-03T02:03:49;8.90;99.90
3713;DHT22;1872;51.406;6.856;2023-02-03T02:06:16;8.90;99.90
3713;DHT22;1872;51.406;6.856;2023-02-03T02:08:48;8.90;99.90
3713;DHT22;1872;51.406;6.856;2023-02-03T02:11:14;8.90;99.90
3713;DHT22;1872;51.406;6.856;2023-02-03T02:13:42;8.90;99.90
3713;DHT22;1872;51.406;6.856;2023-02-03T02:16:15;8.90;99.90
3713;DHT22;1872;51.406;6.856;2023-02-03T02:29:34;8.90;99.90
3713;DHT22;1872;51.406;6.856;2023-02-03T02:32:27;8.90;99.90
3713;DHT22;1872;51.406;6.856;2023-02-03T02:43:13;8.90;99.90
3713;DHT22;1872;51.406;6.856;2023-02-03T02:50:47;8.90;99.90
3713;DHT22;1872;51.406;6.856;2023-02-03T02:53:14;8.90;99.90
3713;DHT22;1872;51.406;6.856;2023-02-03T02:55:42;8.90;99.90
3713;DHT22;1872;51.406;6.856;2023-02-03T02:58:11;8.90;99.90
3713;DHT22;1872;51.406;6.856;2023-02-03T03:00:40;8.90;99.90
3713;DHT22;1872;51.406;6.856;2023-02-03T03:03:20;8.90;99.90
3713;DHT22;1872;51.406;6.856;2023-02-03T03:06:15;8.90;99.90
3713;DHT22;1872;51.406;6.856;2023-02-03T03:09:00;8.90;99.90
3713;DHT22;1872;51.406;6.856;2023-02-03T03:11:30;8.90;99.90
3713;DHT22;1872;51.406;6.856;2023-02-03T03:13:58;8.90;99.90
3713;DHT22;1872;51.406;6.856;2023-02-03T03:16:26;8.90;99.90
3713;DHT22;1872;51.406;6.856;2023-02-03T03:18:55;8.90;99.90
3713;DHT22;1872;51.406;6.856;2023-02-03T03:21:30;8.90;99.90
3713;DHT22;1872;51.406;6.856;2023-02-03T03:23:58;8.90;99.90
3713;DHT22;1872;51.406;6.856;2023-02-03T03:26:34;9.00;99.90
3713;DHT22;1872;51.406;6.856;2023-02-03T03:29:14;8.90;99.90
3713;DHT22;1872;51.406;6.856;2023-02-03T03:31:40;8.90;99.90
3713;DHT22;1872;51.406;6.856;2023-02-03T03:34:10;8.90;99.90
3713;DHT22;1872;51.406;6.856;2023-02-03T03:36:51;9.00;99.90
3713;DHT22;1872;51.406;6.856;2023-02-03T03:39:29;8.90;99.90
3713;DHT22;1872;51.406;6.856;2023-02-03T03:45:18;8.90;99.90
3713;DHT22;1872;51.406;6.856;2023-02-03T03:50:21;8.90;99.90
3713;DHT22;1872;51.406;6.856;2023-02-03T03:52:49;9.00;99.90
3713;DHT22;1872;51.406;6.856;2023-02-03T03:55:17;9.00;99.90
3713;DHT22;1872;51.406;6.856;2023-02-03T04:00:34;9.00;99.90
3713;DHT22;1872;51.406;6.856;2023-02-03T04:03:21;9.00;99.90
3713;DHT22;1872;51.406;6.856;2023-02-03T04:05:48;8.90;99.90
3713;DHT22;1872;51.406;6.856;2023-02-03T04:08:14;9.00;99.90
3713;DHT22;1872;51.406;6.856;2023-02-03T04:10:41;9.00;99.90
3713;DHT22;1872;51.406;6.856;2023-02-03T04:13:09;9.00;99.90
3713;DHT22;1872;51.406;6.856;2023-02-03T04:15:35;9.00;99.90
3713;DHT22;1872;51.406;6.856;2023-02-03T04:18:01;9.00;99.90
3713;DHT22;1872;51.406;6.856;2023-02-03T04:20:29;9.00;99.90
3713;DHT22;1872;51.406;6.856;2023-02-03T04:22:55;9.00;99.90
3713;DHT22;1872;51.406;6.856;2023-02-03T04:25:21;9.00;99.90
3713;DHT22;1872;51.406;6.856;2023-02-03T04:27:47;9.00;99.90
3713;DHT22;1872;51.406;6.856;2023-02-03T04:30:13;9.00;99.90
3713;DHT22;1872;51.406;6.856;2023-02-03T04:32:39;9.10;99.90
3713;DHT22;1872;51.406;6.856;2023-02-03T04:35:06;9.00;99.90
3713;DHT22;1872;51.406;6.856;2023-02-03T04:37:32;9.00;99.90
3713;DHT22;1872;51.406;6.856;2023-02-03T04:39:58;9.00;99.90
3713;DHT22;1872;51.406;6.856;2023-02-03T04:42:24;9.10;99.90
3713;DHT22;1872;51.406;6.856;2023-02-03T04:44:50;9.00;99.90
3713;DHT22;1872;51.406;6.856;2023-02-03T04:47:16;9.10;99.90
3713;DHT22;1872;51.406;6.856;2023-02-03T04:49:42;9.10;99.90
3713;DHT22;1872;51.406;6.856;2023-02-03T04:52:08;9.10;99.90
3713;DHT22;1872;51.406;6.856;2023-02-03T04:54:35;9.00;99.90
3713;DHT22;1872;51.406;6.856;2023-02-03T04:57:01;9.00;99.90
3713;DHT22;1872;51.406;6.856;2023-02-03T04:59:27;9.10;99.90
3713;DHT22;1872;51.406;6.856;2023-02-03T05:01:53;9.10;99.90
3713;DHT22;1872;51.406;6.856;2023-02-03T05:04:18;9.00;99.90
3713;DHT22;1872;51.406;6.856;2023-02-03T05:06:44;9.00;99.90
3713;DHT22;1872;51.406;6.856;2023-02-03T05:09:10;9.00;99.90
3713;DHT22;1872;51.406;6.856;2023-02-03T05:11:36;9.00;99.90
3713;DHT22;1872;51.406;6.856;2023-02-03T05:14:01;9.00;99.90
3713;DHT22;1872;51.406;6.856;2023-02-03T05:16:27;9.10;99.90
3713;DHT22;1872;51.406;6.856;2023-02-03T05:18:53;9.00;99.90
3713;DHT22;1872;51.406;6.856;2023-02-03T05:21:19;9.00;99.90
3713;DHT22;1872;51.406;6.856;2023-02-03T05:23:45;9.00;99.90
3713;DHT22;1872;51.406;6.856;2023-02-03T05:26:11;9.00;99.90
3713;DHT22;1872;51.406;6.856;2023-02-03T05:28:36;9.10;99.90
3713;DHT22;1872;51.406;6.856;2023-02-03T05:31:03;9.00;99.90
3713;DHT22;1872;51.406;6.856;2023-02-03T05:33:29;9.00;99.90
3713;DHT22;1872;51.406;6.856;2023-02-03T05:35:55;9.00;99.90
3713;DHT22;1872;51.406;6.856;2023-02-03T05:38:20;9.00;99.90
3713;DHT22;1872;51.406;6.856;2023-02-03T05:40:47;9.00;99.90
3713;DHT22;1872;51.406;6.856;2023-02-03T05:43:32;9.00;99.90
3713;DHT22;1872;51.406;6.856;2023-02-03T05:46:03;9.10;99.90
3713;DHT22;1872;51.406;6.856;2023-02-03T05:48:29;9.00;99.90
3713;DHT22;1872;51.406;6.856;2023-02-03T05:50:55;9.10;99.90
3713;DHT22;1872;51.406;6.856;2023-02-03T05:53:21;9.10;99.90
3713;DHT22;1872;51.406;6.856;2023-02-03T05:55:47;9.10;99.90
3713;DHT22;1872;51.406;6.856;2023-02-03T05:58:12;9.10;99.90
3713;DHT22;1872;51.406;6.856;2023-02-03T06:00:38;9.10;99.90
3713;DHT22;1872;51.406;6.856;2023-02-03T06:03:04;9.10;99.90
3713;DHT22;1872;51.406;6.856;2023-02-03T06:05:31;9.10;99.90
3713;DHT22;1872;51.406;6.856;2023-02-03T06:07:58;9.10;99.90
3713;DHT22;1872;51.406;6.856;2023-02-03T06:10:24;9.10;99.90
3713;DHT22;1872;51.406;6.856;2023-02-03T06:12:50;9.10;99.90
3713;DHT22;1872;51.406;6.856;2023-02-03T06:15:17;9.10;99.90
3713;DHT22;1872;51.406;6.856;2023-02-03T06:17:45;9.10;99.90
3713;DHT22;1872;51.406;6.856;2023-02-03T06:20:13;9.10;99.90
3713;DHT22;1872;51.406;6.856;2023-02-03T06:22:39;9.10;99.90
3713;DHT22;1872;51.406;6.856;2023-02-03T06:25:05;9.10;99.90
3713;DHT22;1872;51.406;6.856;2023-02-03T06:27:31;9.20;99.90
3713;DHT22;1872;51.406;6.856;2023-02-03T06:29:57;9.20;99.90
3713;DHT22;1872;51.406;6.856;2023-02-03T06:32:22;9.20;99.90
3713;DHT22;1872;51.406;6.856;2023-02-03T06:34:49;9.20;99.90
3713;DHT22;1872;51.406;6.856;2023-02-03T06:37:15;9.20;99.90
3713;DHT22;1872;51.406;6.856;2023-02-03T06:39:41;9.20;99.90
3713;DHT22;1872;51.406;6.856;2023-02-03T06:42:07;9.20;99.90
3713;DHT22;1872;51.406;6.856;2023-02-03T06:44:33;9.20;99.90
3713;DHT22;1872;51.406;6.856;2023-02-03T06:46:59;9.20;99.90
3713;DHT22;1872;51.406;6.856;2023-02-03T06:49:28;9.20;99.90
3713;DHT22;1872;51.406;6.856;2023-02-03T06:51:54;9.20;99.90
3713;DHT22;1872;51.406;6.856;2023-02-03T06:54:20;9.20;99.90
3713;DHT22;1872;51.406;6.856;2023-02-03T06:56:45;9.20;99.90
3713;DHT22;1872;51.406;6.856;2023-02-03T06:59:12;9.20;99.90
3713;DHT22;1872;51.406;6.856;2023-02-03T07:01:37;9.20;99.90
3713;DHT22;1872;51.406;6.856;2023-02-03T07:04:03;9.20;99.90
3713;DHT22;1872;51.406;6.856;2023-02-03T07:06:29;9.20;99.90
3713;DHT22;1872;51.406;6.856;2023-02-03T07:08:59;9.20;99.90
3713;DHT22;1872;51.406;6.856;2023-02-03T07:11:25;9.20;99.90
3713;DHT22;1872;51.406;6.856;2023-02-03T07:13:52;9.20;99.90
3713;DHT22;1872;51.406;6.856;2023-02-03T07:16:17;9.20;99.90
3713;DHT22;1872;51.406;6.856;2023-02-03T07:18:44;9.20;99.90
3713;DHT22;1872;51.406;6.856;2023-02-03T07:21:09;9.20;99.90
3713;DHT22;1872;51.406;6.856;2023-02-03T07:23:35;9.20;99.90
3713;DHT22;1872;51.406;6.856;2023-02-03T07:26:03;9.20;99.90
3713;DHT22;1872;51.406;6.856;2023-02-03T07:28:33;9.20;99.90
3713;DHT22;1872;51.406;6.856;2023-02-03T07:31:00;9.20;99.90
3713;DHT22;1872;51.406;6.856;2023-02-03T07:33:27;9.20;99.90
3713;DHT22;1872;51.406;6.856;2023-02-03T07:35:54;9.20;99.90
3713;DHT22;1872;51.406;6.856;2023-02-03T07:38:21;9.30;99.90
3713;DHT22;1872;51.406;6.856;2023-02-03T07:40:47;9.30;99.90
3713;DHT22;1872;51.406;6.856;2023-02-03T07:43:12;9.30;99.90
3713;DHT22;1872;51.406;6.856;2023-02-03T07:45:38;9.30;99.90
3713;DHT22;1872;51.406;6.856;2023-02-03T07:48:04;9.30;99.90
3713;DHT22;1872;51.406;6.856;2023-02-03T07:50:31;9.30;99.90
3713;DHT22;1872;51.406;6.856;2023-02-03T07:53:00;9.30;99.90
3713;DHT22;1872;51.406;6.856;2023-02-03T07:55:26;9.30;99.90
3713;DHT22;1872;51.406;6.856;2023-02-03T07:57:53;9.30;99.90
3713;DHT22;1872;51.406;6.856;2023-02-03T08:00:20;9.40;99.90
3713;DHT22;1872;51.406;6.856;2023-02-03T08:02:45;9.40;99.90
3713;DHT22;1872;51.406;6.856;2023-02-03T08:05:12;9.40;99.90
3713;DHT22;1872;51.406;6.856;2023-02-03T08:07:39;9.30;99.90
3713;DHT22;1872;51.406;6.856;2023-02-03T08:10:06;9.30;99.90
3713;DHT22;1872;51.406;6.856;2023-02-03T08:12:32;9.30;99.90
3713;DHT22;1872;51.406;6.856;2023-02-03T08:14:58;9.40;99.90
3713;DHT22;1872;51.406;6.856;2023-02-03T08:17:23;9.30;99.90
3713;DHT22;1872;51.406;6.856;2023-02-03T08:19:49;9.40;99.90
3713;DHT22;1872;51.406;6.856;2023-02-03T08:22:15;9.30;99.90
3713;DHT22;1872;51.406;6.856;2023-02-03T08:24:45;9.40;99.90
3713;DHT22;1872;51.406;6.856;2023-02-03T08:27:15;9.40;99.90
3713;DHT22;1872;51.406;6.856;2023-02-03T08:29:42;9.40;99.90
3713;DHT22;1872;51.406;6.856;2023-02-03T08:32:09;9.40;99.90
3713;DHT22;1872;51.406;6.856;2023-02-03T08:34:36;9.40;99.90
3713;DHT22;1872;51.406;6.856;2023-02-03T08:37:02;9.40;99.90
3713;DHT22;1872;51.406;6.856;2023-02-03T08:39:28;9.40;99.90
3713;DHT22;1872;51.406;6.856;2023-02-03T08:41:54;9.40;99.90
3713;DHT22;1872;51.406;6.856;2023-02-03T08:44:20;9.40;99.90
3713;DHT22;1872;51.406;6.856;2023-02-03T08:46:52;9.40;99.90
3713;DHT22;1872;51.406;6.856;2023-02-03T08:49:19;9.40;99.90
3713;DHT22;1872;51.406;6.856;2023-02-03T08:51:47;9.40;99.90
3713;DHT22;1872;51.406;6.856;2023-02-03T08:54:14;9.40;99.90
3713;DHT22;1872;51.406;6.856;2023-02-03T08:56:40;9.40;99.90
3713;DHT22;1872;51.406;6.856;2023-02-03T08:59:06;9.40;99.90
3713;DHT22;1872;51.406;6.856;2023-02-03T09:01:31;9.40;99.90
3713;DHT22;1872;51.406;6.856;2023-02-03T09:03:57;9.40;99.90
3713;DHT22;1872;51.406;6.856;2023-02-03T09:06:23;9.40;99.90
3713;DHT22;1872;51.406;6.856;2023-02-03T09:08:49;9.40;99.90
3713;DHT22;1872;51.406;6.856;2023-02-03T09:11:16;9.40;99.90
3713;DHT22;1872;51.406;6.856;2023-02-03T09:13:43;9.40;99.90
3713;DHT22;1872;51.406;6.856;2023-02-03T09:16:11;9.40;99.90
3713;DHT22;1872;51.406;6.856;2023-02-03T09:18:38;9.40;99.90
3713;DHT22;1872;51.406;6.856;2023-02-03T09:21:05;9.40;99.90
3713;DHT22;1872;51.406;6.856;2023-02-03T09:23:31;9.40;99.90
3713;DHT22;1872;51.406;6.856;2023-02-03T09:26:08;9.40;99.90
3713;DHT22;1872;51.406;6.856;2023-02-03T09:28:34;9.40;99.90
3713;DHT22;1872;51.406;6.856;2023-02-03T09:31:05;9.40;99.90
3713;DHT22;1872;51.406;6.856;2023-02-03T09:33:31;9.30;99.90
3713;DHT22;1872;51.406;6.856;2023-02-03T09:35:57;9.40;99.90
3713;DHT22;1872;51.406;6.856;2023-02-03T09:38:24;9.40;99.90
3713;DHT22;1872;51.406;6.856;2023-02-03T09:40:59;9.40;99.90
3713;DHT22;1872;51.406;6.856;2023-02-03T09:43:55;9.40;99.90
3713;DHT22;1872;51.406;6.856;2023-02-03T09:46:29;9.40;99.90
3713;DHT22;1872;51.406;6.856;2023-02-03T09:49:14;9.40;99.90
3713;DHT22;1872;51.406;6.856;2023-02-03T09:51:49;9.40;99.90
3713;DHT22;1872;51.406;6.856;2023-02-03T09:54:28;9.40;99.90
3713;DHT22;1872;51.406;6.856;2023-02-03T09:56:56;9.40;99.90
3713;DHT22;1872;51.406;6.856;2023-02-03T09:59:29;9.40;99.90
3713;DHT22;1872;51.406;6.856;2023-02-03T10:07:45;9.40;99.90
3713;DHT22;1872;51.406;6.856;2023-02-03T10:13:22;9.50;99.90
3713;DHT22;1872;51.406;6.856;2023-02-03T10:16:03;9.50;99.90
3713;DHT22;1872;51.406;6.856;2023-02-03T10:18:44;9.50;99.90
3713;DHT22;1872;51.406;6.856;2023-02-03T10:21:39;9.50;99.90
3713;DHT22;1872;51.406;6.856;2023-02-03T10:24:21;9.50;99.90
3713;DHT22;1872;51.406;6.856;2023-02-03T10:26:48;9.60;99.90
3713;DHT22;1872;51.406;6.856;2023-02-03T10:29:37;9.60;99.90
3713;DHT22;1872;51.406;6.856;2023-02-03T10:32:08;9.60;99.90
3713;DHT22;1872;51.406;6.856;2023-02-03T10:34:35;9.60;99.90
3713;DHT22;1872;51.406;6.856;2023-02-03T10:39:49;9.70;99.90
3713;DHT22;1872;51.406;6.856;2023-02-03T10:42:15;9.60;99.90
3713;DHT22;1872;51.406;6.856;2023-02-03T10:44:48;9.70;99.90
3713;DHT22;1872;51.406;6.856;2023-02-03T10:49:48;9.70;99.90
3713;DHT22;1872;51.406;6.856;2023-02-03T10:52:44;9.70;99.90
3713;DHT22;1872;51.406;6.856;2023-02-03T10:57:52;9.70;99.90
3713;DHT22;1872;51.406;6.856;2023-02-03T11:06:14;9.80;99.90
3713;DHT22;1872;51.406;6.856;2023-02-03T11:08:43;9.80;99.90
3713;DHT22;1872;51.406;6.856;2023-02-03T11:11:19;9.90;99.90
3713;DHT22;1872;51.406;6.856;2023-02-03T11:13:45;9.90;99.90
3713;DHT22;1872;51.406;6.856;2023-02-03T11:16:14;9.90;99.90
3713;DHT22;1872;51.406;6.856;2023-02-03T11:21:41;9.90;99.90
3713;DHT22;1872;51.406;6.856;2023-02-03T11:24:27;9.90;99.90
3713;DHT22;1872;51.406;6.856;2023-02-03T11:26:58;10.00;99.90
3713;DHT22;1872;51.406;6.856;2023-02-03T11:29:30;10.00;99.90
3713;DHT22;1872;51.406;6.856;2023-02-03T11:32:02;10.00;99.90
3713;DHT22;1872;51.406;6.856;2023-02-03T11:34:32;10.00;99.90
3713;DHT22;1872;51.406;6.856;2023-02-03T11:42:36;10.10;99.90
3713;DHT22;1872;51.406;6.856;2023-02-03T11:56:31;10.20;99.90
3713;DHT22;1872;51.406;6.856;2023-02-03T11:59:31;10.20;99.90
3713;DHT22;1872;51.406;6.856;2023-02-03T12:02:16;10.20;99.90
3713;DHT22;1872;51.406;6.856;2023-02-03T12:05:19;10.20;99.90
3713;DHT22;1872;51.406;6.856;2023-02-03T12:20:00;10.20;99.90
3713;DHT22;1872;51.406;6.856;2023-02-03T12:22:03;10.20;99.90
3713;DHT22;1872;51.406;6.856;2023-02-03T12:24:58;10.20;99.90
3713;DHT22;1872;51.406;6.856;2023-02-03T12:27:33;10.20;99.90
3713;DHT22;1872;51.406;6.856;2023-02-03T12:30:19;10.20;99.90
3713;DHT22;1872;51.406;6.856;2023-02-03T12:33:10;10.20;99.90
3713;DHT22;1872;51.406;6.856;2023-02-03T12:40:59;10.30;99.90
3713;DHT22;1872;51.406;6.856;2023-02-03T12:48:43;10.30;99.90
3713;DHT22;1872;51.406;6.856;2023-02-03T12:51:14;10.30;99.90
3713;DHT22;1872;51.406;6.856;2023-02-03T12:53:49;10.30;99.90
3713;DHT22;1872;51.406;6.856;2023-02-03T12:56:30;10.30;99.90
3713;DHT22;1872;51.406;6.856;2023-02-03T12:59:12;10.30;99.90
3713;DHT22;1872;51.406;6.856;2023-02-03T13:01:50;10.30;99.90
3713;DHT22;1872;51.406;6.856;2023-02-03T13:04:34;10.30;99.90
3713;DHT22;1872;51.406;6.856;2023-02-03T13:07:15;10.30;99.90
3713;DHT22;1872;51.406;6.856;2023-02-03T13:09:58;10.30;99.90
3713;DHT22;1872;51.406;6.856;2023-02-03T13:12:27;10.30;99.90
3713;DHT22;1872;51.406;6.856;2023-02-03T13:17:55;10.30;99.90
3713;DHT22;1872;51.406;6.856;2023-02-03T13:20:30;10.30;99.90
3713;DHT22;1872;51.406;6.856;2023-02-03T13:23:00;10.30;99.90
3713;DHT22;1872;51.406;6.856;2023-02-03T13:28:58;10.20;99.90
3713;DHT22;1872;51.406;6.856;2023-02-03T13:42:25;10.20;99.90
3713;DHT22;1872;51.406;6.856;2023-02-03T13:47:51;10.30;99.90
3713;DHT22;1872;51.406;6.856;2023-02-03T13:50:25;10.30;99.90
3713;DHT22;1872;51.406;6.856;2023-02-03T13:52:57;10.30;99.90
3713;DHT22;1872;51.406;6.856;2023-02-03T13:55:38;10.30;99.90
3713;DHT22;1872;51.406;6.856;2023-02-03T13:58:11;10.30;99.90
3713;DHT22;1872;51.406;6.856;2023-02-03T14:05:54;10.40;99.90
3713;DHT22;1872;51.406;6.856;2023-02-03T14:16:40;10.40;99.90
3713;DHT22;1872;51.406;6.856;2023-02-03T14:19:56;10.40;99.90
3713;DHT22;1872;51.406;6.856;2023-02-03T14:24:51;10.40;99.90
3713;DHT22;1872;51.406;6.856;2023-02-03T14:27:20;10.40;99.90
3713;DHT22;1872;51.406;6.856;2023-02-03T14:30:14;10.40;99.90
3713;DHT22;1872;51.406;6.856;2023-02-03T14:33:00;10.20;99.90
3713;DHT22;1872;51.406;6.856;2023-02-03T14:35:34;10.00;99.90
3713;DHT22;1872;51.406;6.856;2023-02-03T14:38:06;9.80;99.90
3713;DHT22;1872;51.406;6.856;2023-02-03T14:41:01;9.60;99.90
3713;DHT22;1872;51.406;6.856;2023-02-03T14:43:38;9.40;99.90
3713;DHT22;1872;51.406;6.856;2023-02-03T15:05:40;9.00;99.90
3713;DHT22;1872;51.406;6.856;2023-02-03T15:11:18;9.10;99.90
3713;DHT22;1872;51.406;6.856;2023-02-03T15:13:46;9.10;99.90
3713;DHT22;1872;51.406;6.856;2023-02-03T15:16:20;9.10;99.90
3713;DHT22;1872;51.406;6.856;2023-02-03T15:18:56;9.10;99.90
3713;DHT22;1872;51.406;6.856;2023-02-03T15:21:22;9.20;99.90
3713;DHT22;1872;51.406;6.856;2023-02-03T15:23:48;9.20;99.90
3713;DHT22;1872;51.406;6.856;2023-02-03T15:26:26;9.20;99.90
3713;DHT22;1872;51.406;6.856;2023-02-03T15:29:03;9.20;99.90
3713;DHT22;1872;51.406;6.856;2023-02-03T15:34:22;9.30;99.90
3713;DHT22;1872;51.406;6.856;2023-02-03T15:36:54;9.30;99.90
3713;DHT22;1872;51.406;6.856;2023-02-03T15:39:41;9.30;99.90
3713;DHT22;1872;51.406;6.856;2023-02-03T15:42:16;9.30;99.90
3713;DHT22;1872;51.406;6.856;2023-02-03T15:45:12;9.30;99.90
3713;DHT22;1872;51.406;6.856;2023-02-03T15:47:37;9.30;99.90
3713;DHT22;1872;51.406;6.856;2023-02-03T15:50:53;9.40;99.90
3713;DHT22;1872;51.406;6.856;2023-02-03T15:52:54;9.40;99.90
3713;DHT22;1872;51.406;6.856;2023-02-03T15:55:41;9.40;99.90
3713;DHT22;1872;51.406;6.856;2023-02-03T15:58:21;9.40;99.90
3713;DHT22;1872;51.406;6.856;2023-02-03T16:00:53;9.40;99.90
3713;DHT22;1872;51.406;6.856;2023-02-03T16:03:46;9.40;99.90
3713;DHT22;1872;51.406;6.856;2023-02-03T16:06:22;9.40;99.90
3713;DHT22;1872;51.406;6.856;2023-02-03T16:08:49;9.30;99.90
3713;DHT22;1872;51.406;6.856;2023-02-03T16:13:49;9.30;99.90
3713;DHT22;1872;51.406;6.856;2023-02-03T16:16:19;9.30;99.90
3713;DHT22;1872;51.406;6.856;2023-02-03T16:18:51;9.40;99.90
3713;DHT22;1872;51.406;6.856;2023-02-03T16:21:34;9.30;99.90
3713;DHT22;1872;51.406;6.856;2023-02-03T16:24:03;9.30;99.90
3713;DHT22;1872;51.406;6.856;2023-02-03T16:26:31;9.30;99.90
3713;DHT22;1872;51.406;6.856;2023-02-03T16:31:47;9.30;99.90
3713;DHT22;1872;51.406;6.856;2023-02-03T16:34:32;9.30;99.90
3713;DHT22;1872;51.406;6.856;2023-02-03T16:40:10;9.30;99.90
3713;DHT22;1872;51.406;6.856;2023-02-03T16:42:54;9.30;99.90
3713;DHT22;1872;51.406;6.856;2023-02-03T16:45:39;9.30;99.90
3713;DHT22;1872;51.406;6.856;2023-02-03T16:48:24;9.20;99.90
3713;DHT22;1872;51.406;6.856;2023-02-03T16:51:14;9.20;99.90
3713;DHT22;1872;51.406;6.856;2023-02-03T16:53:42;9.20;99.90
3713;DHT22;1872;51.406;6.856;2023-02-03T16:56:09;9.20;99.90
3713;DHT22;1872;51.406;6.856;2023-02-03T16:58:36;9.20;99.90
3713;DHT22;1872;51.406;6.856;2023-02-03T17:01:02;9.30;99.90
3713;DHT22;1872;51.406;6.856;2023-02-03T17:03:29;9.30;99.90
3713;DHT22;1872;51.406;6.856;2023-02-03T17:06:02;9.30;99.90
3713;DHT22;1872;51.406;6.856;2023-02-03T17:08:28;9.30;99.90
3713;DHT22;1872;51.406;6.856;2023-02-03T17:10:54;9.30;99.90
3713;DHT22;1872;51.406;6.856;2023-02-03T17:13:21;9.30;99.90
3713;DHT22;1872;51.406;6.856;2023-02-03T17:15:49;9.30;99.90
3713;DHT22;1872;51.406;6.856;2023-02-03T17:18:17;9.30;99.90
3713;DHT22;1872;51.406;6.856;2023-02-03T17:20:43;9.30;99.90
3713;DHT22;1872;51.406;6.856;2023-02-03T17:23:10;9.30;99.90
3713;DHT22;1872;51.406;6.856;2023-02-03T17:25:38;9.30;99.90
3713;DHT22;1872;51.406;6.856;2023-02-03T17:28:05;9.30;99.90
3713;DHT22;1872;51.406;6.856;2023-02-03T17:30:32;9.20;99.90
3713;DHT22;1872;51.406;6.856;2023-02-03T17:33:01;9.30;99.90
3713;DHT22;1872;51.406;6.856;2023-02-03T17:35:28;9.30;99.90
3713;DHT22;1872;51.406;6.856;2023-02-03T17:37:54;9.20;99.90
3713;DHT22;1872;51.406;6.856;2023-02-03T17:40:20;9.20;99.90
3713;DHT22;1872;51.406;6.856;2023-02-03T17:42:46;9.20;99.90
3713;DHT22;1872;51.406;6.856;2023-02-03T17:45:12;9.20;99.90
3713;DHT22;1872;51.406;6.856;2023-02-03T17:47:37;9.20;99.90
3713;DHT22;1872;51.406;6.856;2023-02-03T17:50:04;9.10;99.90
3713;DHT22;1872;51.406;6.856;2023-02-03T17:52:29;9.10;99.90
3713;DHT22;1872;51.406;6.856;2023-02-03T17:54:55;9.10;99.90
3713;DHT22;1872;51.406;6.856;2023-02-03T17:57:21;9.10;99.90
3713;DHT22;1872;51.406;6.856;2023-02-03T17:59:47;9.10;99.90
3713;DHT22;1872;51.406;6.856;2023-02-03T18:02:13;9.10;99.90
3713;DHT22;1872;51.406;6.856;2023-02-03T18:04:39;9.00;99.90
3713;DHT22;1872;51.406;6.856;2023-02-03T18:07:04;9.00;99.90
3713;DHT22;1872;51.406;6.856;2023-02-03T18:09:31;9.00;99.90
3713;DHT22;1872;51.406;6.856;2023-02-03T18:11:57;9.00;99.90
3713;DHT22;1872;51.406;6.856;2023-02-03T18:14:22;8.90;99.90
3713;DHT22;1872;51.406;6.856;2023-02-03T18:16:48;8.90;99.90
3713;DHT22;1872;51.406;6.856;2023-02-03T18:19:14;8.90;99.90
3713;DHT22;1872;51.406;6.856;2023-02-03T18:21:41;8.90;99.90
3713;DHT22;1872;51.406;6.856;2023-02-03T18:24:08;8.90;99.90
3713;DHT22;1872;51.406;6.856;2023-02-03T18:26:34;8.80;99.90
3713;DHT22;1872;51.406;6.856;2023-02-03T18:29:05;8.80;99.90
3713;DHT22;1872;51.406;6.856;2023-02-03T18:31:30;8.80;99.90
3713;DHT22;1872;51.406;6.856;2023-02-03T18:34:01;8.80;99.90
3713;DHT22;1872;51.406;6.856;2023-02-03T18:36:27;8.80;99.90
3713;DHT22;1872;51.406;6.856;2023-02-03T18:38:52;8.80;99.90
3713;DHT22;1872;51.406;6.856;2023-02-03T18:41:23;8.70;99.90
3713;DHT22;1872;51.406;6.856;2023-02-03T18:43:49;8.70;99.90
3713;DHT22;1872;51.406;6.856;2023-02-03T18:46:25;8.70;99.90
3713;DHT22;1872;51.406;6.856;2023-02-03T18:48:51;8.60;99.90
3713;DHT22;1872;51.406;6.856;2023-02-03T18:51:19;8.50;99.90
3713;DHT22;1872;51.406;6.856;2023-02-03T18:53:45;8.50;99.90
3713;DHT22;1872;51.406;6.856;2023-02-03T18:56:19;8.50;99.90
3713;DHT22;1872;51.406;6.856;2023-02-03T18:58:45;8.50;99.90
3713;DHT22;1872;51.406;6.856;2023-02-03T19:01:24;8.40;99.90
3713;DHT22;1872;51.406;6.856;2023-02-03T19:03:51;8.50;99.90
3713;DHT22;1872;51.406;6.856;2023-02-03T19:06:17;8.50;99.90
3713;DHT22;1872;51.406;6.856;2023-02-03T19:08:43;8.50;99.90
3713;DHT22;1872;51.406;6.856;2023-02-03T19:11:09;8.50;99.90
3713;DHT22;1872;51.406;6.856;2023-02-03T19:13:35;8.50;99.90
3713;DHT22;1872;51.406;6.856;2023-02-03T19:16:01;8.40;99.90
3713;DHT22;1872;51.406;6.856;2023-02-03T19:18:27;8.40;99.90
3713;DHT22;1872;51.406;6.856;2023-02-03T19:20:55;8.40;99.90
3713;DHT22;1872;51.406;6.856;2023-02-03T19:23:20;8.40;99.90
3713;DHT22;1872;51.406;6.856;2023-02-03T19:25:50;8.40;99.90
3713;DHT22;1872;51.406;6.856;2023-02-03T19:28:15;8.40;99.90